Share

Texhoma, OK

Guymon Municipal (KGUY) Elev 3123 ft | 36.68 °N, 101.51 °W | Change Station

Current weather conditions updated 17 minutes ago

Clear
Clear
63 °F
Feels Like 63 °F
N
20
Wind Variable Wind from SSW
Gusts 24 mph
Sunrise 7:08 AM
Sunset 8:24 PM
Moon Waning Gibbous

Today is forecast to be Warmer than yesterday.

Pressure 29.92 in
Visibility 10.0 miles
Clouds Clear
Dew Point 46 °F
Humidity 54%
Rainfall 0.00 in
Snow Depth Not available.
UV 4 out of 16
Pollen 9.30 out of 12
Air Quality Not available.
Flu Activity Regional
METAR KGUY 191453Z AUTO 20017G21KT 10SM CLR 17/08 A3000 RMK AO2 SLP130 T01720078 52005

More Conditions Fewer Conditions

Pressure 29.92 in
Visibility 10.0 miles
Clouds Clear
Dew Point 46 °F
Humidity 54%
Rainfall 0.00 in
Snow Depth Not available.
UV 4 out of 16
Pollen 9.30 out of 12
Air Quality Not available.
Flu Activity Regional
METAR KGUY 191453Z AUTO 20017G21KT 10SM CLR 17/08 A3000 RMK AO2 SLP130 T01720078 52005

More Conditions Fewer Conditions

10-Day Weather Forecast

Almanac

Astronomy

Apr. 19, 2014 Rise Set
Actual Time 7:08 AM CDT 8:24 PM CDT
Civil Twilight 6:41 AM CDT 8:51 PM CDT
Nautical Twilight 6:09 AM CDT 9:23 PM CDT
Astronomical Twilight 5:35 AM CDT 9:57 PM CDT
Moon 12:07 AM CDT 10:32 AM CDT
Length of Visible Light 14h 10m
Length of Day
13h 16m
Tomorrow will be 2m 9s longer.
Waning Gibbous, 79% of the Moon is Illuminated
Today
Waning Gibbous
Apr 22
Last Quarter
Apr 29
New
May 6
First Quarter
May 14
Full

Today's Extremes

State Highs State Lows

Community

  • A Glorious Morning
    A Glorious Morning
  • Tender Rays Of Hope
    Tender Rays Of Hope
  • Bleeding Hearts
    Bleeding Hearts
  • Sunset Silhouettes
    Sunset Silhouettes
  • FL sunset Perico Isle
    FL sunset Perico Isle

WunderPhotos

Upload Photos

1,702,759 photos uploaded!

WunderBlogs® & News

Nearby

Snow Depth

Station Depth Elevation
No new snow has been reported.

Coastal Water Temperatures

Place Temperature
No Stations Reporting

Earthquake Activity

City Distance Mag. Time & Date
No recent earthquake activity has been reported nearby.
Minimum magnitude displayed is 2.5.

Nearby Weather Stations

Station Location Temp. Dew Point Humidity Wind Precip. Elev Updated Type
MesoWest TXHOMA , Texhoma, OK 59 °F - - North  at  - 0.00 in / hr 3499 ft 9:10 AM CDT MADIS
CRN OK PANHANDLE ST (PERM PASTURE)2E OK , Goodwell, OK - - 70% North  at  11 mph 0.00 in / hr 3282 ft 7:00 AM CDT MADIS
MesoWest GOODWL , Goodwell, OK 55 °F - - North  at  - 0.00 in / hr 3228 ft 8:45 AM CDT MADIS
MesoWest STEVNS , Stratford, TX 57 °F - - North  at  - 0.00 in / hr 3611 ft 9:00 AM CDT MADIS

Show More Stations Show Fewer Stations

What do you think?

We're not finished. Please let us know what you like, what you don't like, and what you are still missing.